createdAt,value
2022-09-28T00:01:28.139Z,0.60
2022-09-28T00:04:31.388Z,0.60
2022-09-28T00:07:34.273Z,0.60
2022-09-28T00:10:37.813Z,0.50
2022-09-28T00:13:43.070Z,0.60
2022-09-28T00:16:46.198Z,0.50
2022-09-28T00:19:49.921Z,0.50
2022-09-28T00:22:52.740Z,0.60
2022-09-28T00:25:55.499Z,0.50
2022-09-28T00:29:00.818Z,0.60
2022-09-28T00:32:06.515Z,0.50
2022-09-28T00:35:09.819Z,0.60
2022-09-28T00:38:12.779Z,0.50
2022-09-28T00:41:16.417Z,0.60
2022-09-28T00:44:34.063Z,0.50
2022-09-28T00:47:51.636Z,0.50
2022-09-28T00:50:57.685Z,0.50
2022-09-28T00:54:03.718Z,0.70
2022-09-28T00:57:06.846Z,0.50
2022-09-28T01:00:10.890Z,0.50
2022-09-28T01:03:14.537Z,0.60
2022-09-28T01:06:20.706Z,0.60
2022-09-28T01:09:25.664Z,0.40
2022-09-28T01:12:28.769Z,0.50
2022-09-28T01:15:37.566Z,0.50
2022-09-28T01:19:10.639Z,0.60
2022-09-28T01:22:35.270Z,0.50
2022-09-28T01:25:38.581Z,0.50
2022-09-28T01:28:45.462Z,0.50
2022-09-28T01:32:05.375Z,0.60
2022-09-28T01:35:31.552Z,0.30
2022-09-28T01:38:52.155Z,0.60
2022-09-28T01:42:00.158Z,0.60
2022-09-28T01:45:09.625Z,0.70
2022-09-28T01:48:17.678Z,0.70
2022-09-28T01:51:35.981Z,0.60
2022-09-28T01:54:44.122Z,0.90
2022-09-28T01:57:59.614Z,1.20
2022-09-28T02:01:16.787Z,0.80
2022-09-28T02:04:36.313Z,1.00
2022-09-28T02:07:45.405Z,0.90
2022-09-28T02:11:15.753Z,0.90
2022-09-28T02:14:20.091Z,1.00
2022-09-28T02:17:22.980Z,0.80
2022-09-28T02:20:26.660Z,0.90
2022-09-28T02:23:32.314Z,0.80
2022-09-28T02:26:42.215Z,0.60
2022-09-28T02:29:45.124Z,0.60
2022-09-28T02:32:53.058Z,0.80
2022-09-28T02:35:58.676Z,0.90
2022-09-28T02:39:02.500Z,0.60
2022-09-28T02:42:11.835Z,0.70
2022-09-28T02:45:38.167Z,0.80
2022-09-28T02:49:20.166Z,0.70
2022-09-28T02:52:42.766Z,0.40
2022-09-28T02:56:20.674Z,0.70
2022-09-28T02:59:38.154Z,0.70
2022-09-28T03:02:57.277Z,0.50
2022-09-28T03:06:06.525Z,0.70
2022-09-28T03:09:26.829Z,0.40
2022-09-28T03:12:30.194Z,0.50
2022-09-28T03:15:36.148Z,0.30
2022-09-28T03:18:39.342Z,0.50
2022-09-28T03:21:42.245Z,0.40
2022-09-28T03:24:44.997Z,0.70
2022-09-28T03:27:47.905Z,0.50
2022-09-28T03:30:50.771Z,0.40
2022-09-28T03:33:55.943Z,0.40
2022-09-28T03:36:58.921Z,0.50
2022-09-28T03:40:02.093Z,0.40
2022-09-28T03:43:04.910Z,1.20
2022-09-28T03:46:07.851Z,0.70
2022-09-28T03:49:11.020Z,0.50
2022-09-28T03:52:14.628Z,0.50
2022-09-28T03:55:17.981Z,0.50
2022-09-28T03:58:21.660Z,0.80
2022-09-28T04:01:24.542Z,0.60
2022-09-28T04:04:27.394Z,0.70
2022-09-28T04:07:31.258Z,0.70
2022-09-28T04:10:34.212Z,0.60
2022-09-28T04:13:37.479Z,0.60
2022-09-28T04:16:40.738Z,0.60
2022-09-28T04:19:43.817Z,0.70
2022-09-28T04:22:46.652Z,0.70
2022-09-28T04:25:52.605Z,0.40
2022-09-28T04:29:14.184Z,0.50
2022-09-28T04:32:17.295Z,0.70
2022-09-28T04:35:20.302Z,0.50
2022-09-28T04:38:41.514Z,0.50
2022-09-28T04:41:48.624Z,0.60
2022-09-28T04:44:51.518Z,0.60
2022-09-28T04:47:55.009Z,1.30
2022-09-28T04:51:00.737Z,0.80
2022-09-28T04:54:03.805Z,0.90
2022-09-28T04:57:07.232Z,1.10
2022-09-28T05:00:12.267Z,1.40
2022-09-28T05:03:15.287Z,1.10
2022-09-28T05:06:18.185Z,1.10
2022-09-28T05:09:21.020Z,1.20
2022-09-28T05:12:24.368Z,1.20
2022-09-28T05:15:27.313Z,1.40
2022-09-28T05:18:30.200Z,1.30
2022-09-28T05:21:33.037Z,1.70
2022-09-28T05:24:35.826Z,2.00
2022-09-28T05:27:38.577Z,2.30
2022-09-28T05:30:41.432Z,1.70
2022-09-28T05:33:44.511Z,1.50
2022-09-28T05:36:47.524Z,2.00
2022-09-28T05:39:50.402Z,1.90
2022-09-28T05:42:53.430Z,2.40
2022-09-28T05:46:14.930Z,2.10
2022-09-28T05:49:17.944Z,1.90
2022-09-28T05:52:21.001Z,1.70
2022-09-28T05:55:23.923Z,2.10
2022-09-28T05:58:41.918Z,1.80
2022-09-28T06:01:48.006Z,1.80
2022-09-28T06:04:51.458Z,1.40
2022-09-28T06:07:59.332Z,1.80
2022-09-28T06:11:02.658Z,1.80
2022-09-28T06:14:05.730Z,2.00
2022-09-28T06:17:09.019Z,1.70
2022-09-28T06:20:12.050Z,2.00
2022-09-28T06:23:15.082Z,2.20
2022-09-28T06:26:18.326Z,2.10
2022-09-28T06:29:21.260Z,1.70
2022-09-28T06:32:26.564Z,2.00
2022-09-28T06:35:31.535Z,2.20
2022-09-28T06:38:34.505Z,2.00
2022-09-28T06:41:37.413Z,2.20
2022-09-28T06:44:40.399Z,1.70
2022-09-28T06:47:43.345Z,1.70
2022-09-28T06:50:46.538Z,2.10
2022-09-28T06:53:49.381Z,2.50
2022-09-28T06:56:53.299Z,2.20
2022-09-28T06:59:56.180Z,2.10
2022-09-28T07:02:59.017Z,1.80
2022-09-28T07:06:02.271Z,2.30
2022-09-28T07:09:25.865Z,2.10
2022-09-28T07:12:30.397Z,2.20
2022-09-28T07:15:33.283Z,2.00
2022-09-28T07:18:36.079Z,1.60
2022-09-28T07:21:38.984Z,1.80
2022-09-28T07:24:44.599Z,2.60
2022-09-28T07:27:58.062Z,2.30
2022-09-28T07:31:03.642Z,2.90
2022-09-28T07:34:06.585Z,2.10
2022-09-28T07:37:12.003Z,2.10
2022-09-28T07:40:34.097Z,2.00
2022-09-28T07:43:40.071Z,2.30
2022-09-28T07:46:44.479Z,3.00
2022-09-28T07:49:52.191Z,2.10
2022-09-28T07:52:58.833Z,1.90
2022-09-28T07:56:17.418Z,1.90
2022-09-28T07:59:20.577Z,2.20
2022-09-28T08:02:24.725Z,2.50
2022-09-28T08:05:32.249Z,1.70
2022-09-28T08:08:35.870Z,1.80
2022-09-28T08:11:38.905Z,1.60
2022-09-28T08:14:42.763Z,1.80
2022-09-28T08:17:49.625Z,2.30
2022-09-28T08:21:11.960Z,2.10
2022-09-28T08:24:16.754Z,1.70
2022-09-28T08:27:19.618Z,1.50
2022-09-28T08:30:22.652Z,1.60
2022-09-28T08:33:53.896Z,1.90
2022-09-28T08:36:57.907Z,1.90
2022-09-28T08:40:01.023Z,1.60
2022-09-28T08:43:15.020Z,1.20
2022-09-28T08:46:23.889Z,1.70
2022-09-28T08:49:41.760Z,1.60
2022-09-28T08:52:49.412Z,1.80
2022-09-28T08:55:53.189Z,1.90
2022-09-28T08:59:02.807Z,1.20
2022-09-28T09:02:24.241Z,1.60
2022-09-28T09:05:42.899Z,2.20
2022-09-28T09:08:56.336Z,1.50
2022-09-28T09:12:02.079Z,1.60
2022-09-28T09:15:25.656Z,1.10
2022-09-28T09:18:37.548Z,1.70
2022-09-28T09:21:46.593Z,1.70
2022-09-28T09:25:07.483Z,1.60
2022-09-28T09:28:28.482Z,1.50
2022-09-28T09:31:47.573Z,1.80
2022-09-28T09:35:01.585Z,1.90
2022-09-28T09:38:34.624Z,1.90
2022-09-28T09:41:46.789Z,1.50
2022-09-28T09:45:24.756Z,1.40
2022-09-28T09:48:36.813Z,1.60
2022-09-28T09:52:03.092Z,1.70
2022-09-28T09:55:40.801Z,1.80
2022-09-28T09:58:53.207Z,1.30
2022-09-28T10:01:57.094Z,1.20
2022-09-28T10:05:05.210Z,1.30
2022-09-28T10:08:07.998Z,1.40
2022-09-28T10:11:17.269Z,1.90
2022-09-28T10:14:22.962Z,1.20
2022-09-28T10:17:27.518Z,1.20
2022-09-28T10:20:35.116Z,1.20
2022-09-28T10:23:38.143Z,1.30
2022-09-28T10:26:46.882Z,1.20
2022-09-28T10:29:54.178Z,0.70
2022-09-28T10:33:00.847Z,0.90
2022-09-28T10:36:07.484Z,0.90
2022-09-28T10:39:24.610Z,0.80
2022-09-28T10:42:30.757Z,0.90
2022-09-28T10:45:37.657Z,1.00
2022-09-28T10:49:13.142Z,0.50
2022-09-28T10:52:32.822Z,0.60
2022-09-28T10:55:37.120Z,1.10
2022-09-28T10:58:42.284Z,0.90
2022-09-28T11:01:45.239Z,1.10
2022-09-28T11:04:55.433Z,0.60
2022-09-28T11:08:00.854Z,0.60
2022-09-28T11:11:07.726Z,0.60
2022-09-28T11:14:23.714Z,0.80
2022-09-28T11:17:30.219Z,1.20
2022-09-28T11:20:35.698Z,1.00
2022-09-28T11:23:38.624Z,0.90
2022-09-28T11:26:44.265Z,1.00
2022-09-28T11:29:56.180Z,1.40
2022-09-28T11:33:17.847Z,1.20
2022-09-28T11:36:30.810Z,1.00
2022-09-28T11:39:51.542Z,1.10
2022-09-28T11:43:38.826Z,0.60
2022-09-28T11:46:59.585Z,0.60
2022-09-28T11:50:08.434Z,1.00
2022-09-28T11:53:17.015Z,0.90
2022-09-28T11:59:40.142Z,0.80
2022-09-28T12:02:49.349Z,0.90
2022-09-28T12:05:58.627Z,0.90
2022-09-28T12:09:13.436Z,0.50
2022-09-28T12:12:27.844Z,0.70
2022-09-28T12:16:07.747Z,0.60
2022-09-28T12:19:16.758Z,0.50
2022-09-28T12:22:31.454Z,0.80
2022-09-28T12:25:46.833Z,0.80
2022-09-28T12:28:53.411Z,0.60
2022-09-28T12:32:06.006Z,0.70
2022-09-28T12:35:15.053Z,0.60
2022-09-28T12:38:42.764Z,0.50
2022-09-28T12:42:15.229Z,0.60
2022-09-28T12:45:21.070Z,0.70
2022-09-28T12:48:29.835Z,1.00
2022-09-28T12:51:47.481Z,0.90
2022-09-28T12:55:00.092Z,0.80
2022-09-28T12:58:31.329Z,0.70
2022-09-28T13:01:53.076Z,0.80
2022-09-28T13:05:34.606Z,0.50
2022-09-28T13:08:37.533Z,0.50
2022-09-28T13:12:13.303Z,0.40
2022-09-28T13:15:32.400Z,0.40
2022-09-28T13:21:51.442Z,0.90
2022-09-28T13:24:57.203Z,0.80
2022-09-28T13:28:03.864Z,0.90
2022-09-28T13:31:07.981Z,1.40
2022-09-28T13:34:18.514Z,0.80
2022-09-28T13:37:24.580Z,0.90
2022-09-28T13:41:05.211Z,0.70
2022-09-28T13:44:16.853Z,0.50
2022-09-28T13:47:31.063Z,0.50
2022-09-28T13:51:05.221Z,0.50
2022-09-28T13:54:15.824Z,0.60
2022-09-28T13:57:29.614Z,0.50
2022-09-28T14:00:44.101Z,0.60
2022-09-28T14:04:19.451Z,0.60
2022-09-28T14:10:46.593Z,0.50
2022-09-28T14:14:07.582Z,0.60
2022-09-28T14:17:19.577Z,0.50
2022-09-28T14:20:25.566Z,0.50
2022-09-28T14:23:57.588Z,0.60
2022-09-28T14:27:27.688Z,0.70
2022-09-28T14:30:42.826Z,0.50
2022-09-28T14:33:57.114Z,0.60
2022-09-28T14:37:22.123Z,0.80
2022-09-28T14:40:49.725Z,1.00
2022-09-28T14:44:08.854Z,0.90
2022-09-28T14:47:38.162Z,1.30
2022-09-28T14:50:41.247Z,1.20
2022-09-28T14:53:45.410Z,0.80
2022-09-28T14:56:54.648Z,0.90
2022-09-28T14:59:59.850Z,0.90
2022-09-28T15:03:08.896Z,0.50
2022-09-28T15:06:20.316Z,0.80
2022-09-28T15:09:34.841Z,0.50
2022-09-28T15:12:37.975Z,0.50
2022-09-28T15:15:41.707Z,0.30
2022-09-28T15:19:21.141Z,0.40
2022-09-28T15:22:24.423Z,0.40
2022-09-28T15:25:30.368Z,0.50
2022-09-28T15:28:36.235Z,0.50
2022-09-28T15:31:39.108Z,0.50
2022-09-28T15:35:02.138Z,0.70
2022-09-28T15:38:13.636Z,0.50
2022-09-28T15:41:17.334Z,0.70
2022-09-28T15:44:37.256Z,0.80
2022-09-28T15:47:41.490Z,0.80
2022-09-28T15:50:58.396Z,0.80
2022-09-28T15:54:09.435Z,1.40
2022-09-28T15:57:37.319Z,1.00
2022-09-28T16:00:40.643Z,0.90
2022-09-28T16:03:43.842Z,0.70
2022-09-28T16:07:10.143Z,0.60
2022-09-28T16:10:18.960Z,0.50
2022-09-28T16:16:34.436Z,2.10
2022-09-28T16:19:39.102Z,1.50
2022-09-28T16:22:43.489Z,2.00
2022-09-28T16:26:02.185Z,1.90
2022-09-28T16:29:25.984Z,2.60
2022-09-28T16:32:36.231Z,2.80
2022-09-28T16:35:42.122Z,2.60
2022-09-28T16:38:45.732Z,2.40
2022-09-28T16:41:59.787Z,2.30
2022-09-28T16:45:05.391Z,2.20
2022-09-28T16:48:14.724Z,2.90
2022-09-28T16:51:19.436Z,2.10
2022-09-28T16:54:43.493Z,1.80
2022-09-28T16:57:52.276Z,2.10
2022-09-28T17:00:55.807Z,2.50
2022-09-28T17:03:58.947Z,2.80
2022-09-28T17:07:01.983Z,2.60
2022-09-28T17:10:19.441Z,2.30
2022-09-28T17:13:30.158Z,2.30
2022-09-28T17:17:02.399Z,2.00
2022-09-28T17:19:56.392Z,2.30
2022-09-28T17:22:59.454Z,1.60
2022-09-28T17:26:06.538Z,1.70
2022-09-28T17:29:14.983Z,2.00
2022-09-28T17:32:19.248Z,2.20
2022-09-28T17:35:24.651Z,1.80
2022-09-28T17:38:28.724Z,1.30
2022-09-28T17:41:32.783Z,1.40
2022-09-28T17:44:36.361Z,1.40
2022-09-28T17:47:39.228Z,1.40
2022-09-28T17:50:46.384Z,1.70
2022-09-28T17:53:49.616Z,1.60
2022-09-28T17:56:52.543Z,2.20
2022-09-28T17:59:55.361Z,2.30
2022-09-28T18:02:59.243Z,2.10
2022-09-28T18:06:06.722Z,1.50
2022-09-28T18:09:14.082Z,1.60
2022-09-28T18:12:17.070Z,1.70
2022-09-28T18:15:19.994Z,1.90
2022-09-28T18:18:24.192Z,2.10
2022-09-28T18:21:27.129Z,2.50
2022-09-28T18:24:32.624Z,2.50
2022-09-28T18:27:35.525Z,2.80
2022-09-28T18:30:41.111Z,2.50
2022-09-28T18:33:43.965Z,2.10
2022-09-28T18:36:47.382Z,2.20
2022-09-28T18:39:51.403Z,2.30
2022-09-28T18:42:54.341Z,2.10
2022-09-28T18:45:57.316Z,2.00
2022-09-28T18:49:00.155Z,1.50
2022-09-28T18:52:03.643Z,1.50
2022-09-28T18:55:08.247Z,1.90
2022-09-28T18:58:12.229Z,1.40
2022-09-28T19:01:32.826Z,1.30
2022-09-28T19:04:36.614Z,1.50
2022-09-28T19:07:39.616Z,1.40
2022-09-28T19:10:42.597Z,1.80
2022-09-28T19:13:45.599Z,1.60
2022-09-28T19:16:48.596Z,1.70
2022-09-28T19:19:52.276Z,1.90
2022-09-28T19:22:58.182Z,2.20
2022-09-28T19:26:06.425Z,2.30
2022-09-28T19:29:13.776Z,2.60
2022-09-28T19:32:16.555Z,2.20
2022-09-28T19:35:19.807Z,1.80
2022-09-28T19:38:23.097Z,1.60
2022-09-28T19:41:43.475Z,1.70
2022-09-28T19:44:48.296Z,2.00
2022-09-28T19:47:52.239Z,1.60
2022-09-28T19:51:03.096Z,1.40
2022-09-28T19:54:07.153Z,1.90
2022-09-28T19:57:11.871Z,1.80
2022-09-28T20:00:18.166Z,1.50
2022-09-28T20:03:22.858Z,1.80
2022-09-28T20:06:27.019Z,1.80
2022-09-28T20:09:33.309Z,1.40
2022-09-28T20:12:36.654Z,1.60
2022-09-28T20:15:40.171Z,1.60
2022-09-28T20:18:50.906Z,1.50
2022-09-28T20:21:55.041Z,1.40
2022-09-28T20:24:58.629Z,1.80
2022-09-28T20:28:04.867Z,1.60
2022-09-28T20:31:11.327Z,1.90
2022-09-28T20:34:14.558Z,2.00
2022-09-28T20:37:17.820Z,1.60
2022-09-28T20:40:21.047Z,2.00
2022-09-28T20:43:24.382Z,1.90
2022-09-28T20:46:28.088Z,2.10
2022-09-28T20:49:31.876Z,1.70
2022-09-28T20:52:35.055Z,1.70
2022-09-28T20:55:38.045Z,1.90
2022-09-28T20:58:41.263Z,2.00
2022-09-28T21:01:44.232Z,1.70
2022-09-28T21:04:47.083Z,1.70
2022-09-28T21:07:49.910Z,1.70
2022-09-28T21:10:54.150Z,1.70
2022-09-28T21:13:59.615Z,1.80
2022-09-28T21:17:02.540Z,1.60
2022-09-28T21:20:07.066Z,1.70
2022-09-28T21:23:10.797Z,1.10
2022-09-28T21:26:24.986Z,1.40
2022-09-28T21:29:28.144Z,1.40
2022-09-28T21:32:31.161Z,1.60
2022-09-28T21:35:39.511Z,1.60
2022-09-28T21:38:42.286Z,1.90
2022-09-28T21:41:45.173Z,1.60
2022-09-28T21:44:47.973Z,2.10
2022-09-28T21:47:54.918Z,2.10
2022-09-28T21:50:58.915Z,1.70
2022-09-28T21:54:01.906Z,2.30
2022-09-28T21:57:04.740Z,2.10
2022-09-28T22:00:08.731Z,2.20
2022-09-28T22:03:11.766Z,1.70
2022-09-28T22:06:16.410Z,1.60
2022-09-28T22:09:19.370Z,1.60
2022-09-28T22:12:22.457Z,1.70
2022-09-28T22:15:25.535Z,1.40
2022-09-28T22:18:30.417Z,1.50
2022-09-28T22:21:35.068Z,1.30
2022-09-28T22:24:37.857Z,1.40
2022-09-28T22:27:40.819Z,1.40
2022-09-28T22:30:44.820Z,1.30
2022-09-28T22:33:48.490Z,1.90
2022-09-28T22:36:51.238Z,1.40
2022-09-28T22:39:55.513Z,1.60
2022-09-28T22:42:58.333Z,1.30
2022-09-28T22:46:06.714Z,1.80
2022-09-28T22:49:10.470Z,1.40
2022-09-28T22:52:13.304Z,1.60
2022-09-28T22:55:16.203Z,2.00
2022-09-28T22:58:19.113Z,1.50
2022-09-28T23:01:28.157Z,1.40
2022-09-28T23:04:32.075Z,1.90
2022-09-28T23:07:34.840Z,1.80
2022-09-28T23:10:37.632Z,1.80
2022-09-28T23:13:40.413Z,1.40
2022-09-28T23:16:43.263Z,1.50
2022-09-28T23:19:46.069Z,1.50
2022-09-28T23:22:49.696Z,1.50
2022-09-28T23:25:53.569Z,1.90
2022-09-28T23:29:20.973Z,1.40
2022-09-28T23:32:26.531Z,1.60
2022-09-28T23:35:31.418Z,1.20
2022-09-28T23:38:34.515Z,1.60
2022-09-28T23:41:38.223Z,1.30
2022-09-28T23:44:41.041Z,1.40
2022-09-28T23:47:43.789Z,1.20
2022-09-28T23:50:46.616Z,1.60
2022-09-28T23:53:49.456Z,1.10
2022-09-28T23:56:52.289Z,1.50
2022-09-28T23:59:55.236Z,1.10
